sensor_id;sensor_type;location;lat;lon;timestamp;temperature;humidity
12152;DHT22;6139;51.274;7.128;2022-11-20T00:00:38;2.10;99.90
12152;DHT22;6139;51.274;7.128;2022-11-20T00:01:40;2.00;99.90
12152;DHT22;6139;51.274;7.128;2022-11-20T00:02:42;2.10;99.90
12152;DHT22;6139;51.274;7.128;2022-11-20T00:03:44;2.10;99.90
12152;DHT22;6139;51.274;7.128;2022-11-20T00:04:46;2.10;99.90
12152;DHT22;6139;51.274;7.128;2022-11-20T00:05:47;2.10;99.90
12152;DHT22;6139;51.274;7.128;2022-11-20T00:06:49;2.10;99.90
12152;DHT22;6139;51.274;7.128;2022-11-20T00:07:51;2.10;99.90
12152;DHT22;6139;51.274;7.128;2022-11-20T00:08:54;2.10;99.90
12152;DHT22;6139;51.274;7.128;2022-11-20T00:09:56;2.10;99.90
12152;DHT22;6139;51.274;7.128;2022-11-20T00:10:57;2.20;99.90
12152;DHT22;6139;51.274;7.128;2022-11-20T00:12:04;2.20;99.90
12152;DHT22;6139;51.274;7.128;2022-11-20T00:13:05;2.20;99.90
12152;DHT22;6139;51.274;7.128;2022-11-20T00:14:09;2.20;99.90
12152;DHT22;6139;51.274;7.128;2022-11-20T00:15:13;2.20;99.90
12152;DHT22;6139;51.274;7.128;2022-11-20T00:16:15;2.30;99.90
12152;DHT22;6139;51.274;7.128;2022-11-20T00:17:18;2.20;99.90
12152;DHT22;6139;51.274;7.128;2022-11-20T00:18:19;2.20;99.90
12152;DHT22;6139;51.274;7.128;2022-11-20T00:19:21;2.30;99.90
12152;DHT22;6139;51.274;7.128;2022-11-20T00:20:21;2.20;99.90
12152;DHT22;6139;51.274;7.128;2022-11-20T00:21:25;2.20;99.90
12152;DHT22;6139;51.274;7.128;2022-11-20T00:22:26;2.30;99.90
12152;DHT22;6139;51.274;7.128;2022-11-20T00:23:28;2.20;99.90
12152;DHT22;6139;51.274;7.128;2022-11-20T00:24:29;2.30;99.90
12152;DHT22;6139;51.274;7.128;2022-11-20T00:25:31;2.30;99.90
12152;DHT22;6139;51.274;7.128;2022-11-20T00:26:34;2.20;99.90
12152;DHT22;6139;51.274;7.128;2022-11-20T00:27:36;2.20;99.90
12152;DHT22;6139;51.274;7.128;2022-11-20T00:28:37;2.20;99.90
12152;DHT22;6139;51.274;7.128;2022-11-20T00:29:39;2.30;99.90
12152;DHT22;6139;51.274;7.128;2022-11-20T00:30:41;2.30;99.90
12152;DHT22;6139;51.274;7.128;2022-11-20T00:31:43;2.30;99.90
12152;DHT22;6139;51.274;7.128;2022-11-20T00:32:45;2.30;99.90
12152;DHT22;6139;51.274;7.128;2022-11-20T00:33:46;2.20;99.90
12152;DHT22;6139;51.274;7.128;2022-11-20T00:34:48;2.20;99.90
12152;DHT22;6139;51.274;7.128;2022-11-20T00:35:49;2.20;99.90
12152;DHT22;6139;51.274;7.128;2022-11-20T00:36:51;2.30;99.90
12152;DHT22;6139;51.274;7.128;2022-11-20T00:37:52;2.30;99.90
12152;DHT22;6139;51.274;7.128;2022-11-20T00:38:56;2.30;99.90
12152;DHT22;6139;51.274;7.128;2022-11-20T00:39:57;2.40;99.90
12152;DHT22;6139;51.274;7.128;2022-11-20T00:41:00;2.40;99.90
12152;DHT22;6139;51.274;7.128;2022-11-20T00:42:01;2.40;99.90
12152;DHT22;6139;51.274;7.128;2022-11-20T00:43:03;2.30;99.90
12152;DHT22;6139;51.274;7.128;2022-11-20T00:44:04;2.40;99.90
12152;DHT22;6139;51.274;7.128;2022-11-20T00:45:07;2.40;99.90
12152;DHT22;6139;51.274;7.128;2022-11-20T00:46:12;2.40;99.90
12152;DHT22;6139;51.274;7.128;2022-11-20T00:47:14;2.40;99.90
12152;DHT22;6139;51.274;7.128;2022-11-20T00:48:15;2.40;99.90
12152;DHT22;6139;51.274;7.128;2022-11-20T00:49:18;2.40;99.90
12152;DHT22;6139;51.274;7.128;2022-11-20T00:50:19;2.40;99.90
12152;DHT22;6139;51.274;7.128;2022-11-20T00:51:22;2.40;99.90
12152;DHT22;6139;51.274;7.128;2022-11-20T00:52:24;2.40;99.90
12152;DHT22;6139;51.274;7.128;2022-11-20T00:53:26;2.30;99.90
12152;DHT22;6139;51.274;7.128;2022-11-20T00:54:27;2.40;99.90
12152;DHT22;6139;51.274;7.128;2022-11-20T00:55:29;2.40;99.90
12152;DHT22;6139;51.274;7.128;2022-11-20T00:56:30;2.40;99.90
12152;DHT22;6139;51.274;7.128;2022-11-20T00:57:32;2.40;99.90
12152;DHT22;6139;51.274;7.128;2022-11-20T00:58:35;2.40;99.90
12152;DHT22;6139;51.274;7.128;2022-11-20T00:59:37;2.40;99.90
12152;DHT22;6139;51.274;7.128;2022-11-20T01:00:38;2.40;99.90
12152;DHT22;6139;51.274;7.128;2022-11-20T01:01:42;2.40;99.90
12152;DHT22;6139;51.274;7.128;2022-11-20T01:02:43;2.40;99.90
12152;DHT22;6139;51.274;7.128;2022-11-20T01:03:47;2.50;99.90
12152;DHT22;6139;51.274;7.128;2022-11-20T01:04:48;2.50;99.90
12152;DHT22;6139;51.274;7.128;2022-11-20T01:05:50;2.40;99.90
12152;DHT22;6139;51.274;7.128;2022-11-20T01:06:51;2.40;99.90
12152;DHT22;6139;51.274;7.128;2022-11-20T01:07:53;2.40;99.90
12152;DHT22;6139;51.274;7.128;2022-11-20T01:08:57;2.40;99.90
12152;DHT22;6139;51.274;7.128;2022-11-20T01:09:59;2.40;99.90
12152;DHT22;6139;51.274;7.128;2022-11-20T01:11:00;2.50;99.90
12152;DHT22;6139;51.274;7.128;2022-11-20T01:12:03;2.50;99.90
12152;DHT22;6139;51.274;7.128;2022-11-20T01:13:04;2.50;99.90
12152;DHT22;6139;51.274;7.128;2022-11-20T01:14:24;2.50;99.90
12152;DHT22;6139;51.274;7.128;2022-11-20T01:15:26;2.40;99.90
12152;DHT22;6139;51.274;7.128;2022-11-20T01:16:28;2.40;99.90
12152;DHT22;6139;51.274;7.128;2022-11-20T01:17:32;2.40;99.90
12152;DHT22;6139;51.274;7.128;2022-11-20T01:18:34;2.40;99.90
12152;DHT22;6139;51.274;7.128;2022-11-20T01:19:37;2.40;99.90
12152;DHT22;6139;51.274;7.128;2022-11-20T01:20:38;2.40;99.90
12152;DHT22;6139;51.274;7.128;2022-11-20T01:21:42;2.40;99.90
12152;DHT22;6139;51.274;7.128;2022-11-20T01:22:44;2.40;99.90
12152;DHT22;6139;51.274;7.128;2022-11-20T01:23:46;2.50;99.90
12152;DHT22;6139;51.274;7.128;2022-11-20T01:24:48;2.50;99.90
12152;DHT22;6139;51.274;7.128;2022-11-20T01:25:49;2.50;99.90
12152;DHT22;6139;51.274;7.128;2022-11-20T01:26:52;2.50;99.90
12152;DHT22;6139;51.274;7.128;2022-11-20T01:27:54;2.50;99.90
12152;DHT22;6139;51.274;7.128;2022-11-20T01:28:55;2.50;99.90
12152;DHT22;6139;51.274;7.128;2022-11-20T01:29:57;2.50;99.90
12152;DHT22;6139;51.274;7.128;2022-11-20T01:30:59;2.50;99.90
12152;DHT22;6139;51.274;7.128;2022-11-20T01:32:01;2.50;99.90
12152;DHT22;6139;51.274;7.128;2022-11-20T01:33:03;2.50;99.90
12152;DHT22;6139;51.274;7.128;2022-11-20T01:34:07;2.50;99.90
12152;DHT22;6139;51.274;7.128;2022-11-20T01:35:09;2.50;99.90
12152;DHT22;6139;51.274;7.128;2022-11-20T01:36:12;2.60;99.90
12152;DHT22;6139;51.274;7.128;2022-11-20T01:37:13;2.60;99.90
12152;DHT22;6139;51.274;7.128;2022-11-20T01:38:15;2.60;99.90
12152;DHT22;6139;51.274;7.128;2022-11-20T01:39:18;2.60;99.90
12152;DHT22;6139;51.274;7.128;2022-11-20T01:40:21;2.60;99.90
12152;DHT22;6139;51.274;7.128;2022-11-20T01:41:22;2.60;99.90
12152;DHT22;6139;51.274;7.128;2022-11-20T01:42:46;2.60;99.90
12152;DHT22;6139;51.274;7.128;2022-11-20T01:44:08;2.60;99.90
12152;DHT22;6139;51.274;7.128;2022-11-20T01:46:52;2.60;99.90
12152;DHT22;6139;51.274;7.128;2022-11-20T01:47:56;2.50;99.90
12152;DHT22;6139;51.274;7.128;2022-11-20T01:49:01;2.50;99.90
12152;DHT22;6139;51.274;7.128;2022-11-20T01:50:09;2.50;99.90
12152;DHT22;6139;51.274;7.128;2022-11-20T01:51:17;2.60;99.90
12152;DHT22;6139;51.274;7.128;2022-11-20T01:52:24;2.50;99.90
12152;DHT22;6139;51.274;7.128;2022-11-20T01:53:28;2.50;99.90
12152;DHT22;6139;51.274;7.128;2022-11-20T01:54:35;2.50;99.90
12152;DHT22;6139;51.274;7.128;2022-11-20T01:55:39;2.50;99.90
12152;DHT22;6139;51.274;7.128;2022-11-20T01:56:44;2.50;99.90
12152;DHT22;6139;51.274;7.128;2022-11-20T01:57:48;2.50;99.90
12152;DHT22;6139;51.274;7.128;2022-11-20T01:58:54;2.60;99.90
12152;DHT22;6139;51.274;7.128;2022-11-20T01:59:59;2.60;99.90
12152;DHT22;6139;51.274;7.128;2022-11-20T02:01:03;2.60;99.90
12152;DHT22;6139;51.274;7.128;2022-11-20T02:02:05;2.60;99.90
12152;DHT22;6139;51.274;7.128;2022-11-20T02:03:09;2.60;99.90
12152;DHT22;6139;51.274;7.128;2022-11-20T02:04:12;2.60;99.90
12152;DHT22;6139;51.274;7.128;2022-11-20T02:05:18;2.60;99.90
12152;DHT22;6139;51.274;7.128;2022-11-20T02:06:24;2.60;99.90
12152;DHT22;6139;51.274;7.128;2022-11-20T02:07:27;2.60;99.90
12152;DHT22;6139;51.274;7.128;2022-11-20T02:08:29;2.60;99.90
12152;DHT22;6139;51.274;7.128;2022-11-20T02:09:32;2.60;99.90
12152;DHT22;6139;51.274;7.128;2022-11-20T02:10:34;2.60;99.90
12152;DHT22;6139;51.274;7.128;2022-11-20T02:11:35;2.60;99.90
12152;DHT22;6139;51.274;7.128;2022-11-20T02:12:37;2.60;99.90
12152;DHT22;6139;51.274;7.128;2022-11-20T02:13:57;2.70;99.90
12152;DHT22;6139;51.274;7.128;2022-11-20T02:14:59;2.70;99.90
12152;DHT22;6139;51.274;7.128;2022-11-20T02:16:00;2.70;99.90
12152;DHT22;6139;51.274;7.128;2022-11-20T02:17:03;2.70;99.90
12152;DHT22;6139;51.274;7.128;2022-11-20T02:18:05;2.70;99.90
12152;DHT22;6139;51.274;7.128;2022-11-20T02:19:12;2.60;99.90
12152;DHT22;6139;51.274;7.128;2022-11-20T02:20:18;2.60;99.90
12152;DHT22;6139;51.274;7.128;2022-11-20T02:21:28;2.60;99.90
12152;DHT22;6139;51.274;7.128;2022-11-20T02:22:34;2.60;99.90
12152;DHT22;6139;51.274;7.128;2022-11-20T02:23:39;2.60;99.90
12152;DHT22;6139;51.274;7.128;2022-11-20T02:24:44;2.60;99.90
12152;DHT22;6139;51.274;7.128;2022-11-20T02:25:47;2.60;99.90
12152;DHT22;6139;51.274;7.128;2022-11-20T02:26:52;2.60;99.90
12152;DHT22;6139;51.274;7.128;2022-11-20T02:27:54;2.60;99.90
12152;DHT22;6139;51.274;7.128;2022-11-20T02:28:56;2.60;99.90
12152;DHT22;6139;51.274;7.128;2022-11-20T02:30:01;2.60;99.90
12152;DHT22;6139;51.274;7.128;2022-11-20T02:31:03;2.60;99.90
12152;DHT22;6139;51.274;7.128;2022-11-20T02:32:05;2.60;99.90
12152;DHT22;6139;51.274;7.128;2022-11-20T02:33:07;2.60;99.90
12152;DHT22;6139;51.274;7.128;2022-11-20T02:34:09;2.50;99.90
12152;DHT22;6139;51.274;7.128;2022-11-20T02:35:42;2.50;99.90
12152;DHT22;6139;51.274;7.128;2022-11-20T02:36:43;2.50;99.90
12152;DHT22;6139;51.274;7.128;2022-11-20T02:37:48;2.50;99.90
12152;DHT22;6139;51.274;7.128;2022-11-20T02:38:49;2.50;99.90
12152;DHT22;6139;51.274;7.128;2022-11-20T02:39:52;2.50;99.90
12152;DHT22;6139;51.274;7.128;2022-11-20T02:40:53;2.50;99.90
12152;DHT22;6139;51.274;7.128;2022-11-20T02:41:56;2.50;99.90
12152;DHT22;6139;51.274;7.128;2022-11-20T02:42:57;2.50;99.90
12152;DHT22;6139;51.274;7.128;2022-11-20T02:43:59;2.50;99.90
12152;DHT22;6139;51.274;7.128;2022-11-20T02:45:00;2.50;99.90
12152;DHT22;6139;51.274;7.128;2022-11-20T02:46:02;2.50;99.90
12152;DHT22;6139;51.274;7.128;2022-11-20T02:47:03;2.50;99.90
12152;DHT22;6139;51.274;7.128;2022-11-20T02:48:06;2.50;99.90
12152;DHT22;6139;51.274;7.128;2022-11-20T02:49:08;2.50;99.90
12152;DHT22;6139;51.274;7.128;2022-11-20T02:50:10;2.50;99.90
12152;DHT22;6139;51.274;7.128;2022-11-20T02:51:11;2.50;99.90
12152;DHT22;6139;51.274;7.128;2022-11-20T02:52:13;2.50;99.90
12152;DHT22;6139;51.274;7.128;2022-11-20T02:53:14;2.50;99.90
12152;DHT22;6139;51.274;7.128;2022-11-20T02:54:16;2.50;99.90
12152;DHT22;6139;51.274;7.128;2022-11-20T02:55:18;2.50;99.90
12152;DHT22;6139;51.274;7.128;2022-11-20T02:56:20;2.50;99.90
12152;DHT22;6139;51.274;7.128;2022-11-20T02:57:21;2.50;99.90
12152;DHT22;6139;51.274;7.128;2022-11-20T02:58:23;2.50;99.90
12152;DHT22;6139;51.274;7.128;2022-11-20T02:59:25;2.60;99.90
12152;DHT22;6139;51.274;7.128;2022-11-20T03:00:27;2.60;99.90
12152;DHT22;6139;51.274;7.128;2022-11-20T03:01:28;2.60;99.90
12152;DHT22;6139;51.274;7.128;2022-11-20T03:02:30;2.50;99.90
12152;DHT22;6139;51.274;7.128;2022-11-20T03:03:31;2.50;99.90
12152;DHT22;6139;51.274;7.128;2022-11-20T03:04:33;2.50;99.90
12152;DHT22;6139;51.274;7.128;2022-11-20T03:05:34;2.50;99.90
12152;DHT22;6139;51.274;7.128;2022-11-20T03:06:36;2.50;99.90
12152;DHT22;6139;51.274;7.128;2022-11-20T03:07:37;2.50;99.90
12152;DHT22;6139;51.274;7.128;2022-11-20T03:08:39;2.50;99.90
12152;DHT22;6139;51.274;7.128;2022-11-20T03:09:40;2.50;99.90
12152;DHT22;6139;51.274;7.128;2022-11-20T03:10:43;2.60;99.90
12152;DHT22;6139;51.274;7.128;2022-11-20T03:11:44;2.60;99.90
12152;DHT22;6139;51.274;7.128;2022-11-20T03:12:46;2.60;99.90
12152;DHT22;6139;51.274;7.128;2022-11-20T03:13:47;2.60;99.90
12152;DHT22;6139;51.274;7.128;2022-11-20T03:14:49;2.60;99.90
12152;DHT22;6139;51.274;7.128;2022-11-20T03:15:50;2.60;99.90
12152;DHT22;6139;51.274;7.128;2022-11-20T03:16:52;2.50;99.90
12152;DHT22;6139;51.274;7.128;2022-11-20T03:17:53;2.50;99.90
12152;DHT22;6139;51.274;7.128;2022-11-20T03:18:56;2.50;99.90
12152;DHT22;6139;51.274;7.128;2022-11-20T03:19:57;2.60;99.90
12152;DHT22;6139;51.274;7.128;2022-11-20T03:20:59;2.60;99.90
12152;DHT22;6139;51.274;7.128;2022-11-20T03:22:00;2.60;99.90
12152;DHT22;6139;51.274;7.128;2022-11-20T03:23:02;2.60;99.90
12152;DHT22;6139;51.274;7.128;2022-11-20T03:24:03;2.60;99.90
12152;DHT22;6139;51.274;7.128;2022-11-20T03:25:06;2.60;99.90
12152;DHT22;6139;51.274;7.128;2022-11-20T03:26:14;2.60;99.90
12152;DHT22;6139;51.274;7.128;2022-11-20T03:27:16;2.60;99.90
12152;DHT22;6139;51.274;7.128;2022-11-20T03:28:17;2.60;99.90
12152;DHT22;6139;51.274;7.128;2022-11-20T03:29:19;2.60;99.90
12152;DHT22;6139;51.274;7.128;2022-11-20T03:30:20;2.60;99.90
12152;DHT22;6139;51.274;7.128;2022-11-20T03:31:24;2.60;99.90
12152;DHT22;6139;51.274;7.128;2022-11-20T03:32:25;2.60;99.90
12152;DHT22;6139;51.274;7.128;2022-11-20T03:33:28;2.60;99.90
12152;DHT22;6139;51.274;7.128;2022-11-20T03:34:29;2.60;99.90
12152;DHT22;6139;51.274;7.128;2022-11-20T03:35:31;2.60;99.90
12152;DHT22;6139;51.274;7.128;2022-11-20T03:36:32;2.60;99.90
12152;DHT22;6139;51.274;7.128;2022-11-20T03:37:34;2.70;99.90
12152;DHT22;6139;51.274;7.128;2022-11-20T03:38:35;2.70;99.90
12152;DHT22;6139;51.274;7.128;2022-11-20T03:39:37;2.70;99.90
12152;DHT22;6139;51.274;7.128;2022-11-20T03:40:38;2.70;99.90
12152;DHT22;6139;51.274;7.128;2022-11-20T03:41:42;2.70;99.90
12152;DHT22;6139;51.274;7.128;2022-11-20T03:42:44;2.70;99.90
12152;DHT22;6139;51.274;7.128;2022-11-20T03:43:49;2.70;99.90
12152;DHT22;6139;51.274;7.128;2022-11-20T03:44:50;2.70;99.90
12152;DHT22;6139;51.274;7.128;2022-11-20T03:45:52;2.70;99.90
12152;DHT22;6139;51.274;7.128;2022-11-20T03:46:53;2.70;99.90
12152;DHT22;6139;51.274;7.128;2022-11-20T03:47:55;2.70;99.90
12152;DHT22;6139;51.274;7.128;2022-11-20T03:48:56;2.70;99.90
12152;DHT22;6139;51.274;7.128;2022-11-20T03:49:58;2.70;99.90
12152;DHT22;6139;51.274;7.128;2022-11-20T03:51:11;2.70;99.90
12152;DHT22;6139;51.274;7.128;2022-11-20T03:52:13;2.70;99.90
12152;DHT22;6139;51.274;7.128;2022-11-20T03:53:14;2.80;99.90
12152;DHT22;6139;51.274;7.128;2022-11-20T03:54:17;2.80;99.90
12152;DHT22;6139;51.274;7.128;2022-11-20T03:55:17;2.80;99.90
12152;DHT22;6139;51.274;7.128;2022-11-20T03:56:22;2.80;99.90
12152;DHT22;6139;51.274;7.128;2022-11-20T03:57:25;2.70;99.90
12152;DHT22;6139;51.274;7.128;2022-11-20T03:58:27;2.70;99.90
12152;DHT22;6139;51.274;7.128;2022-11-20T03:59:28;2.70;99.90
12152;DHT22;6139;51.274;7.128;2022-11-20T04:00:30;2.70;99.90
12152;DHT22;6139;51.274;7.128;2022-11-20T04:01:33;2.80;99.90
12152;DHT22;6139;51.274;7.128;2022-11-20T04:02:36;2.80;99.90
12152;DHT22;6139;51.274;7.128;2022-11-20T04:03:38;2.70;99.90
12152;DHT22;6139;51.274;7.128;2022-11-20T04:04:40;2.80;99.90
12152;DHT22;6139;51.274;7.128;2022-11-20T04:05:41;2.80;99.90
12152;DHT22;6139;51.274;7.128;2022-11-20T04:06:43;2.80;99.90
12152;DHT22;6139;51.274;7.128;2022-11-20T04:07:44;2.80;99.90
12152;DHT22;6139;51.274;7.128;2022-11-20T04:08:46;2.80;99.90
12152;DHT22;6139;51.274;7.128;2022-11-20T04:09:47;2.80;99.90
12152;DHT22;6139;51.274;7.128;2022-11-20T04:10:49;2.80;99.90
12152;DHT22;6139;51.274;7.128;2022-11-20T04:11:50;2.80;99.90
12152;DHT22;6139;51.274;7.128;2022-11-20T04:12:54;2.80;99.90
12152;DHT22;6139;51.274;7.128;2022-11-20T04:13:56;2.80;99.90
12152;DHT22;6139;51.274;7.128;2022-11-20T04:14:58;2.80;99.90
12152;DHT22;6139;51.274;7.128;2022-11-20T04:15:59;2.90;99.90
12152;DHT22;6139;51.274;7.128;2022-11-20T04:17:01;2.90;99.90
12152;DHT22;6139;51.274;7.128;2022-11-20T04:18:03;2.90;99.90
12152;DHT22;6139;51.274;7.128;2022-11-20T04:19:11;2.80;99.90
12152;DHT22;6139;51.274;7.128;2022-11-20T04:20:12;2.80;99.90
12152;DHT22;6139;51.274;7.128;2022-11-20T04:21:15;2.90;99.90
12152;DHT22;6139;51.274;7.128;2022-11-20T04:22:16;2.90;99.90
12152;DHT22;6139;51.274;7.128;2022-11-20T04:23:18;2.90;99.90
12152;DHT22;6139;51.274;7.128;2022-11-20T04:24:18;2.90;99.90
12152;DHT22;6139;51.274;7.128;2022-11-20T04:25:20;2.90;99.90
12152;DHT22;6139;51.274;7.128;2022-11-20T04:26:22;2.90;99.90
12152;DHT22;6139;51.274;7.128;2022-11-20T04:27:25;2.90;99.90
12152;DHT22;6139;51.274;7.128;2022-11-20T04:28:27;2.90;99.90
12152;DHT22;6139;51.274;7.128;2022-11-20T04:29:29;2.90;99.90
12152;DHT22;6139;51.274;7.128;2022-11-20T04:30:31;2.90;99.90
12152;DHT22;6139;51.274;7.128;2022-11-20T04:31:34;2.90;99.90
12152;DHT22;6139;51.274;7.128;2022-11-20T04:32:35;2.90;99.90
12152;DHT22;6139;51.274;7.128;2022-11-20T04:33:37;2.90;99.90
12152;DHT22;6139;51.274;7.128;2022-11-20T04:34:38;2.90;99.90
12152;DHT22;6139;51.274;7.128;2022-11-20T04:35:40;2.90;99.90
12152;DHT22;6139;51.274;7.128;2022-11-20T04:36:41;2.90;99.90
12152;DHT22;6139;51.274;7.128;2022-11-20T04:37:43;2.90;99.90
12152;DHT22;6139;51.274;7.128;2022-11-20T04:38:44;2.90;99.90
12152;DHT22;6139;51.274;7.128;2022-11-20T04:39:46;2.90;99.90
12152;DHT22;6139;51.274;7.128;2022-11-20T04:40:47;2.90;99.90
12152;DHT22;6139;51.274;7.128;2022-11-20T04:41:49;2.90;99.90
12152;DHT22;6139;51.274;7.128;2022-11-20T04:43:10;2.90;99.90
12152;DHT22;6139;51.274;7.128;2022-11-20T04:44:13;2.90;99.90
12152;DHT22;6139;51.274;7.128;2022-11-20T04:45:14;2.90;99.90
12152;DHT22;6139;51.274;7.128;2022-11-20T04:46:16;3.00;99.90
12152;DHT22;6139;51.274;7.128;2022-11-20T04:47:17;3.00;99.90
12152;DHT22;6139;51.274;7.128;2022-11-20T04:48:19;3.00;99.90
12152;DHT22;6139;51.274;7.128;2022-11-20T04:49:20;3.00;99.90
12152;DHT22;6139;51.274;7.128;2022-11-20T04:50:22;3.00;99.90
12152;DHT22;6139;51.274;7.128;2022-11-20T04:51:23;3.00;99.90
12152;DHT22;6139;51.274;7.128;2022-11-20T04:52:25;3.00;99.90
12152;DHT22;6139;51.274;7.128;2022-11-20T04:53:26;3.00;99.90
12152;DHT22;6139;51.274;7.128;2022-11-20T04:54:28;3.00;99.90
12152;DHT22;6139;51.274;7.128;2022-11-20T04:55:29;3.00;99.90
12152;DHT22;6139;51.274;7.128;2022-11-20T04:56:31;3.00;99.90
12152;DHT22;6139;51.274;7.128;2022-11-20T04:57:32;3.00;99.90
12152;DHT22;6139;51.274;7.128;2022-11-20T04:58:35;3.00;99.90
12152;DHT22;6139;51.274;7.128;2022-11-20T04:59:37;2.90;99.90
12152;DHT22;6139;51.274;7.128;2022-11-20T05:00:40;3.00;99.90
12152;DHT22;6139;51.274;7.128;2022-11-20T05:01:41;2.90;99.90
12152;DHT22;6139;51.274;7.128;2022-11-20T05:02:43;3.00;99.90
12152;DHT22;6139;51.274;7.128;2022-11-20T05:03:44;3.00;99.90
12152;DHT22;6139;51.274;7.128;2022-11-20T05:04:47;3.00;99.90
12152;DHT22;6139;51.274;7.128;2022-11-20T05:05:48;3.00;99.90
12152;DHT22;6139;51.274;7.128;2022-11-20T05:06:50;3.00;99.90
12152;DHT22;6139;51.274;7.128;2022-11-20T05:07:51;3.00;99.90
12152;DHT22;6139;51.274;7.128;2022-11-20T05:08:52;3.00;99.90
12152;DHT22;6139;51.274;7.128;2022-11-20T05:09:53;3.00;99.90
12152;DHT22;6139;51.274;7.128;2022-11-20T05:11:00;3.00;99.90
12152;DHT22;6139;51.274;7.128;2022-11-20T05:12:01;3.00;99.90
12152;DHT22;6139;51.274;7.128;2022-11-20T05:13:03;3.00;99.90
12152;DHT22;6139;51.274;7.128;2022-11-20T05:14:04;3.00;99.90
12152;DHT22;6139;51.274;7.128;2022-11-20T05:15:08;3.00;99.90
12152;DHT22;6139;51.274;7.128;2022-11-20T05:16:10;2.90;99.90
12152;DHT22;6139;51.274;7.128;2022-11-20T05:17:12;2.90;99.90
12152;DHT22;6139;51.274;7.128;2022-11-20T05:18:13;2.90;99.90
12152;DHT22;6139;51.274;7.128;2022-11-20T05:19:15;2.90;99.90
12152;DHT22;6139;51.274;7.128;2022-11-20T05:20:16;2.90;99.90
12152;DHT22;6139;51.274;7.128;2022-11-20T05:21:19;2.90;99.90
12152;DHT22;6139;51.274;7.128;2022-11-20T05:22:20;2.90;99.90
12152;DHT22;6139;51.274;7.128;2022-11-20T05:23:22;3.00;99.90
12152;DHT22;6139;51.274;7.128;2022-11-20T05:24:23;3.00;99.90
12152;DHT22;6139;51.274;7.128;2022-11-20T05:25:25;3.00;99.90
12152;DHT22;6139;51.274;7.128;2022-11-20T05:26:26;3.00;99.90
12152;DHT22;6139;51.274;7.128;2022-11-20T05:27:28;3.00;99.90
12152;DHT22;6139;51.274;7.128;2022-11-20T05:28:30;3.00;99.90
12152;DHT22;6139;51.274;7.128;2022-11-20T05:29:32;3.00;99.90
12152;DHT22;6139;51.274;7.128;2022-11-20T05:30:35;3.00;99.90
12152;DHT22;6139;51.274;7.128;2022-11-20T05:31:36;3.00;99.90
12152;DHT22;6139;51.274;7.128;2022-11-20T05:32:40;3.00;99.90
12152;DHT22;6139;51.274;7.128;2022-11-20T05:33:41;3.00;99.90
12152;DHT22;6139;51.274;7.128;2022-11-20T05:34:44;3.00;99.90
12152;DHT22;6139;51.274;7.128;2022-11-20T05:35:45;3.00;99.90
12152;DHT22;6139;51.274;7.128;2022-11-20T05:36:46;3.00;99.90
12152;DHT22;6139;51.274;7.128;2022-11-20T05:37:47;3.00;99.90
12152;DHT22;6139;51.274;7.128;2022-11-20T05:38:49;3.00;99.90
12152;DHT22;6139;51.274;7.128;2022-11-20T05:39:50;3.00;99.90
12152;DHT22;6139;51.274;7.128;2022-11-20T05:40:52;3.00;99.90
12152;DHT22;6139;51.274;7.128;2022-11-20T05:41:53;3.00;99.90
12152;DHT22;6139;51.274;7.128;2022-11-20T05:43:09;3.00;99.90
12152;DHT22;6139;51.274;7.128;2022-11-20T05:44:12;3.00;99.90
12152;DHT22;6139;51.274;7.128;2022-11-20T05:45:15;3.10;99.90
12152;DHT22;6139;51.274;7.128;2022-11-20T05:46:18;3.00;99.90
12152;DHT22;6139;51.274;7.128;2022-11-20T05:47:21;3.00;99.90
12152;DHT22;6139;51.274;7.128;2022-11-20T05:48:22;3.00;99.90
12152;DHT22;6139;51.274;7.128;2022-11-20T05:49:24;3.00;99.90
12152;DHT22;6139;51.274;7.128;2022-11-20T05:50:25;3.00;99.90
12152;DHT22;6139;51.274;7.128;2022-11-20T05:51:27;3.00;99.90
12152;DHT22;6139;51.274;7.128;2022-11-20T05:52:28;3.00;99.90
12152;DHT22;6139;51.274;7.128;2022-11-20T05:53:32;2.90;99.90
12152;DHT22;6139;51.274;7.128;2022-11-20T05:54:33;3.00;99.90
12152;DHT22;6139;51.274;7.128;2022-11-20T05:55:35;3.00;99.90
12152;DHT22;6139;51.274;7.128;2022-11-20T05:56:36;3.00;99.90
12152;DHT22;6139;51.274;7.128;2022-11-20T05:57:38;2.90;99.90
12152;DHT22;6139;51.274;7.128;2022-11-20T05:58:39;2.90;99.90
12152;DHT22;6139;51.274;7.128;2022-11-20T05:59:41;2.90;99.90
12152;DHT22;6139;51.274;7.128;2022-11-20T06:00:42;2.90;99.90
12152;DHT22;6139;51.274;7.128;2022-11-20T06:01:45;2.90;99.90
12152;DHT22;6139;51.274;7.128;2022-11-20T06:02:46;2.90;99.90
12152;DHT22;6139;51.274;7.128;2022-11-20T06:03:48;2.90;99.90
12152;DHT22;6139;51.274;7.128;2022-11-20T06:04:51;2.80;99.90
12152;DHT22;6139;51.274;7.128;2022-11-20T06:05:53;2.80;99.90
12152;DHT22;6139;51.274;7.128;2022-11-20T06:06:54;2.80;99.90
12152;DHT22;6139;51.274;7.128;2022-11-20T06:07:56;2.80;99.90
12152;DHT22;6139;51.274;7.128;2022-11-20T06:08:56;2.90;99.90
12152;DHT22;6139;51.274;7.128;2022-11-20T06:09:59;2.90;99.90
12152;DHT22;6139;51.274;7.128;2022-11-20T06:11:03;2.90;99.90
12152;DHT22;6139;51.274;7.128;2022-11-20T06:12:06;2.90;99.90
12152;DHT22;6139;51.274;7.128;2022-11-20T06:13:07;2.90;99.90
12152;DHT22;6139;51.274;7.128;2022-11-20T06:14:09;2.90;99.90
12152;DHT22;6139;51.274;7.128;2022-11-20T06:15:10;2.90;99.90
12152;DHT22;6139;51.274;7.128;2022-11-20T06:16:14;2.90;99.90
12152;DHT22;6139;51.274;7.128;2022-11-20T06:17:17;2.90;99.90
12152;DHT22;6139;51.274;7.128;2022-11-20T06:18:19;2.90;99.90
12152;DHT22;6139;51.274;7.128;2022-11-20T06:19:20;2.90;99.90
12152;DHT22;6139;51.274;7.128;2022-11-20T06:20:22;2.90;99.90
12152;DHT22;6139;51.274;7.128;2022-11-20T06:21:24;2.90;99.90
12152;DHT22;6139;51.274;7.128;2022-11-20T06:22:26;2.90;99.90
12152;DHT22;6139;51.274;7.128;2022-11-20T06:23:28;2.90;99.90
12152;DHT22;6139;51.274;7.128;2022-11-20T06:24:30;2.90;99.90
12152;DHT22;6139;51.274;7.128;2022-11-20T06:25:32;2.90;99.90
12152;DHT22;6139;51.274;7.128;2022-11-20T06:26:33;2.90;99.90
12152;DHT22;6139;51.274;7.128;2022-11-20T06:27:35;2.90;99.90
12152;DHT22;6139;51.274;7.128;2022-11-20T06:28:36;2.90;99.90
12152;DHT22;6139;51.274;7.128;2022-11-20T06:29:38;2.90;99.90
12152;DHT22;6139;51.274;7.128;2022-11-20T06:30:44;2.90;99.90
12152;DHT22;6139;51.274;7.128;2022-11-20T06:31:46;2.90;99.90
12152;DHT22;6139;51.274;7.128;2022-11-20T06:32:50;2.80;99.90
12152;DHT22;6139;51.274;7.128;2022-11-20T06:33:51;2.80;99.90
12152;DHT22;6139;51.274;7.128;2022-11-20T06:34:53;2.80;99.90
12152;DHT22;6139;51.274;7.128;2022-11-20T06:35:56;2.80;99.90
12152;DHT22;6139;51.274;7.128;2022-11-20T06:36:58;2.80;99.90
12152;DHT22;6139;51.274;7.128;2022-11-20T06:37:59;2.80;99.90
12152;DHT22;6139;51.274;7.128;2022-11-20T06:39:01;2.80;99.90
12152;DHT22;6139;51.274;7.128;2022-11-20T06:40:03;2.80;99.90
12152;DHT22;6139;51.274;7.128;2022-11-20T06:41:06;2.80;99.90
12152;DHT22;6139;51.274;7.128;2022-11-20T06:42:07;2.90;99.90
12152;DHT22;6139;51.274;7.128;2022-11-20T06:43:09;2.90;99.90
12152;DHT22;6139;51.274;7.128;2022-11-20T06:44:10;2.90;99.90
12152;DHT22;6139;51.274;7.128;2022-11-20T06:45:12;2.90;99.90
12152;DHT22;6139;51.274;7.128;2022-11-20T06:46:14;2.90;99.90
12152;DHT22;6139;51.274;7.128;2022-11-20T06:47:18;2.80;99.90
12152;DHT22;6139;51.274;7.128;2022-11-20T06:48:20;2.90;99.90
12152;DHT22;6139;51.274;7.128;2022-11-20T06:49:22;2.90;99.90
12152;DHT22;6139;51.274;7.128;2022-11-20T06:50:25;2.90;99.90